sensor_id;sensor_type;location;lat;lon;timestamp;P1;durP1;ratioP1;P2;durP2;ratioP2
10641;SDS011;5369;49.586;8.646;2023-10-19T00:01:22;13.40;;;12.00;;
10641;SDS011;5369;49.586;8.646;2023-10-19T00:03:53;17.10;;;13.37;;
10641;SDS011;5369;49.586;8.646;2023-10-19T00:06:21;14.97;;;12.67;;
10641;SDS011;5369;49.586;8.646;2023-10-19T00:08:48;12.87;;;10.53;;
10641;SDS011;5369;49.586;8.646;2023-10-19T00:11:17;14.47;;;12.20;;
10641;SDS011;5369;49.586;8.646;2023-10-19T00:13:47;13.77;;;12.27;;
10641;SDS011;5369;49.586;8.646;2023-10-19T00:16:19;14.93;;;13.17;;
10641;SDS011;5369;49.586;8.646;2023-10-19T00:18:48;16.30;;;14.47;;
10641;SDS011;5369;49.586;8.646;2023-10-19T00:21:14;15.83;;;13.10;;
10641;SDS011;5369;49.586;8.646;2023-10-19T00:23:51;16.73;;;13.37;;
10641;SDS011;5369;49.586;8.646;2023-10-19T00:26:21;17.97;;;15.13;;
10641;SDS011;5369;49.586;8.646;2023-10-19T00:28:53;17.00;;;15.20;;
10641;SDS011;5369;49.586;8.646;2023-10-19T00:31:21;16.40;;;14.47;;
10641;SDS011;5369;49.586;8.646;2023-10-19T00:33:47;17.80;;;14.80;;
10641;SDS011;5369;49.586;8.646;2023-10-19T00:36:17;21.30;;;15.57;;
10641;SDS011;5369;49.586;8.646;2023-10-19T00:38:46;19.10;;;15.43;;
10641;SDS011;5369;49.586;8.646;2023-10-19T00:41:25;17.60;;;15.40;;
10641;SDS011;5369;49.586;8.646;2023-10-19T00:43:58;20.07;;;15.37;;
10641;SDS011;5369;49.586;8.646;2023-10-19T00:46:48;19.70;;;15.43;;
10641;SDS011;5369;49.586;8.646;2023-10-19T00:49:32;15.63;;;13.70;;
10641;SDS011;5369;49.586;8.646;2023-10-19T00:51:59;21.83;;;16.73;;
10641;SDS011;5369;49.586;8.646;2023-10-19T00:54:36;21.43;;;16.57;;
10641;SDS011;5369;49.586;8.646;2023-10-19T00:57:17;17.80;;;13.90;;
10641;SDS011;5369;49.586;8.646;2023-10-19T00:59:58;13.73;;;11.33;;
10641;SDS011;5369;49.586;8.646;2023-10-19T01:02:40;15.20;;;11.67;;
10641;SDS011;5369;49.586;8.646;2023-10-19T01:05:10;12.27;;;10.60;;
10641;SDS011;5369;49.586;8.646;2023-10-19T01:07:39;11.63;;;10.43;;
10641;SDS011;5369;49.586;8.646;2023-10-19T01:10:07;12.20;;;10.57;;
10641;SDS011;5369;49.586;8.646;2023-10-19T01:12:33;16.27;;;12.20;;
10641;SDS011;5369;49.586;8.646;2023-10-19T01:15:16;13.63;;;10.70;;
10641;SDS011;5369;49.586;8.646;2023-10-19T01:17:52;13.73;;;10.80;;
10641;SDS011;5369;49.586;8.646;2023-10-19T01:20:21;16.57;;;12.17;;
10641;SDS011;5369;49.586;8.646;2023-10-19T01:22:54;11.33;;;10.10;;
10641;SDS011;5369;49.586;8.646;2023-10-19T01:25:32;10.13;;;9.03;;
10641;SDS011;5369;49.586;8.646;2023-10-19T01:28:07;9.13;;;7.67;;
10641;SDS011;5369;49.586;8.646;2023-10-19T01:30:37;10.30;;;8.20;;
10641;SDS011;5369;49.586;8.646;2023-10-19T01:33:04;8.00;;;7.27;;
10641;SDS011;5369;49.586;8.646;2023-10-19T01:35:41;8.27;;;7.43;;
10641;SDS011;5369;49.586;8.646;2023-10-19T01:38:29;8.83;;;7.93;;
10641;SDS011;5369;49.586;8.646;2023-10-19T01:40:59;10.00;;;8.30;;
10641;SDS011;5369;49.586;8.646;2023-10-19T01:43:26;8.07;;;7.27;;
10641;SDS011;5369;49.586;8.646;2023-10-19T01:45:59;10.03;;;8.87;;
10641;SDS011;5369;49.586;8.646;2023-10-19T01:48:30;10.77;;;9.57;;
10641;SDS011;5369;49.586;8.646;2023-10-19T01:51:04;11.13;;;9.77;;
10641;SDS011;5369;49.586;8.646;2023-10-19T01:53:31;15.30;;;11.33;;
10641;SDS011;5369;49.586;8.646;2023-10-19T01:55:57;13.70;;;11.50;;
10641;SDS011;5369;49.586;8.646;2023-10-19T01:58:24;13.50;;;11.10;;
10641;SDS011;5369;49.586;8.646;2023-10-19T02:00:51;11.63;;;10.43;;
10641;SDS011;5369;49.586;8.646;2023-10-19T02:03:21;13.53;;;11.80;;
10641;SDS011;5369;49.586;8.646;2023-10-19T02:05:59;11.73;;;10.53;;
10641;SDS011;5369;49.586;8.646;2023-10-19T02:08:31;14.77;;;12.00;;
10641;SDS011;5369;49.586;8.646;2023-10-19T02:10:57;12.53;;;11.23;;
10641;SDS011;5369;49.586;8.646;2023-10-19T02:13:27;13.33;;;11.93;;
10641;SDS011;5369;49.586;8.646;2023-10-19T02:15:53;12.37;;;11.07;;
10641;SDS011;5369;49.586;8.646;2023-10-19T02:18:21;13.10;;;11.60;;
10641;SDS011;5369;49.586;8.646;2023-10-19T02:20:47;13.73;;;10.93;;
10641;SDS011;5369;49.586;8.646;2023-10-19T02:23:13;12.57;;;10.87;;
10641;SDS011;5369;49.586;8.646;2023-10-19T02:25:40;13.40;;;11.00;;
10641;SDS011;5369;49.586;8.646;2023-10-19T02:28:07;12.10;;;10.67;;
10641;SDS011;5369;49.586;8.646;2023-10-19T02:30:34;16.97;;;13.93;;
10641;SDS011;5369;49.586;8.646;2023-10-19T02:33:01;22.20;;;16.27;;
10641;SDS011;5369;49.586;8.646;2023-10-19T02:35:28;25.13;;;18.10;;
10641;SDS011;5369;49.586;8.646;2023-10-19T02:37:55;17.13;;;13.60;;
10641;SDS011;5369;49.586;8.646;2023-10-19T02:40:23;16.43;;;13.13;;
10641;SDS011;5369;49.586;8.646;2023-10-19T02:42:50;15.23;;;12.17;;
10641;SDS011;5369;49.586;8.646;2023-10-19T02:45:18;15.33;;;11.70;;
10641;SDS011;5369;49.586;8.646;2023-10-19T02:47:44;17.70;;;12.60;;
10641;SDS011;5369;49.586;8.646;2023-10-19T02:50:11;16.93;;;12.47;;
10641;SDS011;5369;49.586;8.646;2023-10-19T02:52:47;11.63;;;10.23;;
10641;SDS011;5369;49.586;8.646;2023-10-19T02:55:14;16.73;;;12.00;;
10641;SDS011;5369;49.586;8.646;2023-10-19T02:57:43;14.43;;;11.50;;
10641;SDS011;5369;49.586;8.646;2023-10-19T03:00:12;20.10;;;14.03;;
10641;SDS011;5369;49.586;8.646;2023-10-19T03:02:46;15.50;;;12.13;;
10641;SDS011;5369;49.586;8.646;2023-10-19T03:05:12;12.73;;;11.17;;
10641;SDS011;5369;49.586;8.646;2023-10-19T03:07:42;15.97;;;12.33;;
10641;SDS011;5369;49.586;8.646;2023-10-19T03:10:10;15.97;;;11.97;;
10641;SDS011;5369;49.586;8.646;2023-10-19T03:12:55;15.70;;;11.77;;
10641;SDS011;5369;49.586;8.646;2023-10-19T03:15:22;17.73;;;13.27;;
10641;SDS011;5369;49.586;8.646;2023-10-19T03:17:49;18.97;;;13.93;;
10641;SDS011;5369;49.586;8.646;2023-10-19T03:20:15;14.30;;;12.00;;
10641;SDS011;5369;49.586;8.646;2023-10-19T03:22:49;16.27;;;13.63;;
10641;SDS011;5369;49.586;8.646;2023-10-19T03:25:15;15.73;;;12.03;;
10641;SDS011;5369;49.586;8.646;2023-10-19T03:28:00;15.87;;;12.77;;
10641;SDS011;5369;49.586;8.646;2023-10-19T03:30:42;14.00;;;11.90;;
10641;SDS011;5369;49.586;8.646;2023-10-19T03:33:08;14.50;;;12.10;;
10641;SDS011;5369;49.586;8.646;2023-10-19T03:35:35;13.43;;;11.77;;
10641;SDS011;5369;49.586;8.646;2023-10-19T03:38:02;15.30;;;12.10;;
10641;SDS011;5369;49.586;8.646;2023-10-19T03:40:34;15.70;;;12.27;;
10641;SDS011;5369;49.586;8.646;2023-10-19T03:43:03;14.40;;;12.23;;
10641;SDS011;5369;49.586;8.646;2023-10-19T03:45:40;16.83;;;10.83;;
10641;SDS011;5369;49.586;8.646;2023-10-19T03:48:12;18.00;;;14.33;;
10641;SDS011;5369;49.586;8.646;2023-10-19T03:50:41;13.60;;;11.20;;
10641;SDS011;5369;49.586;8.646;2023-10-19T03:53:07;20.40;;;14.67;;
10641;SDS011;5369;49.586;8.646;2023-10-19T03:55:37;17.53;;;13.03;;
10641;SDS011;5369;49.586;8.646;2023-10-19T03:58:04;19.03;;;13.93;;
10641;SDS011;5369;49.586;8.646;2023-10-19T04:00:30;22.70;;;14.73;;
10641;SDS011;5369;49.586;8.646;2023-10-19T04:02:58;24.70;;;15.37;;
10641;SDS011;5369;49.586;8.646;2023-10-19T04:05:25;17.33;;;12.67;;
10641;SDS011;5369;49.586;8.646;2023-10-19T04:07:53;16.30;;;12.00;;
10641;SDS011;5369;49.586;8.646;2023-10-19T04:10:30;21.10;;;13.53;;
10641;SDS011;5369;49.586;8.646;2023-10-19T04:13:04;17.80;;;12.67;;
10641;SDS011;5369;49.586;8.646;2023-10-19T04:15:34;14.43;;;11.53;;
10641;SDS011;5369;49.586;8.646;2023-10-19T04:18:02;16.77;;;11.40;;
10641;SDS011;5369;49.586;8.646;2023-10-19T04:20:33;19.93;;;12.40;;
10641;SDS011;5369;49.586;8.646;2023-10-19T04:23:07;19.37;;;12.53;;
10641;SDS011;5369;49.586;8.646;2023-10-19T04:25:36;21.87;;;13.83;;
10641;SDS011;5369;49.586;8.646;2023-10-19T04:28:03;12.73;;;10.13;;
10641;SDS011;5369;49.586;8.646;2023-10-19T04:30:30;11.57;;;8.90;;
10641;SDS011;5369;49.586;8.646;2023-10-19T04:32:58;8.90;;;8.00;;
10641;SDS011;5369;49.586;8.646;2023-10-19T04:35:26;10.10;;;8.13;;
10641;SDS011;5369;49.586;8.646;2023-10-19T04:37:55;9.87;;;7.87;;
10641;SDS011;5369;49.586;8.646;2023-10-19T04:40:22;8.37;;;7.43;;
10641;SDS011;5369;49.586;8.646;2023-10-19T04:42:50;10.47;;;8.03;;
10641;SDS011;5369;49.586;8.646;2023-10-19T04:45:16;8.80;;;7.17;;
10641;SDS011;5369;49.586;8.646;2023-10-19T04:47:43;8.67;;;7.27;;
10641;SDS011;5369;49.586;8.646;2023-10-19T04:50:09;10.07;;;7.50;;
10641;SDS011;5369;49.586;8.646;2023-10-19T04:52:36;8.63;;;6.57;;
10641;SDS011;5369;49.586;8.646;2023-10-19T04:55:02;9.17;;;6.93;;
10641;SDS011;5369;49.586;8.646;2023-10-19T04:57:29;9.30;;;7.60;;
10641;SDS011;5369;49.586;8.646;2023-10-19T04:59:56;8.73;;;7.37;;
10641;SDS011;5369;49.586;8.646;2023-10-19T05:02:22;9.10;;;7.10;;
10641;SDS011;5369;49.586;8.646;2023-10-19T05:04:48;8.77;;;7.03;;
10641;SDS011;5369;49.586;8.646;2023-10-19T05:07:15;8.23;;;7.07;;
10641;SDS011;5369;49.586;8.646;2023-10-19T05:09:44;7.57;;;6.60;;
10641;SDS011;5369;49.586;8.646;2023-10-19T05:12:10;7.83;;;6.20;;
10641;SDS011;5369;49.586;8.646;2023-10-19T05:14:37;8.63;;;6.93;;
10641;SDS011;5369;49.586;8.646;2023-10-19T05:17:04;7.47;;;6.60;;
10641;SDS011;5369;49.586;8.646;2023-10-19T05:19:30;7.90;;;7.00;;
10641;SDS011;5369;49.586;8.646;2023-10-19T05:21:57;8.93;;;7.50;;
10641;SDS011;5369;49.586;8.646;2023-10-19T05:24:23;8.60;;;7.70;;
10641;SDS011;5369;49.586;8.646;2023-10-19T05:26:49;8.40;;;7.53;;
10641;SDS011;5369;49.586;8.646;2023-10-19T05:29:15;10.03;;;8.00;;
10641;SDS011;5369;49.586;8.646;2023-10-19T05:31:42;9.07;;;7.83;;
10641;SDS011;5369;49.586;8.646;2023-10-19T05:34:08;8.50;;;7.60;;
10641;SDS011;5369;49.586;8.646;2023-10-19T05:36:34;9.73;;;8.07;;
10641;SDS011;5369;49.586;8.646;2023-10-19T05:39:00;9.33;;;7.60;;
10641;SDS011;5369;49.586;8.646;2023-10-19T05:41:29;10.33;;;8.37;;
10641;SDS011;5369;49.586;8.646;2023-10-19T05:43:56;8.90;;;7.87;;
10641;SDS011;5369;49.586;8.646;2023-10-19T05:46:22;9.60;;;8.30;;
10641;SDS011;5369;49.586;8.646;2023-10-19T05:48:50;9.87;;;7.87;;
10641;SDS011;5369;49.586;8.646;2023-10-19T05:51:16;8.60;;;7.70;;
10641;SDS011;5369;49.586;8.646;2023-10-19T05:53:42;9.73;;;7.47;;
10641;SDS011;5369;49.586;8.646;2023-10-19T05:56:10;10.40;;;7.57;;
10641;SDS011;5369;49.586;8.646;2023-10-19T05:58:36;7.37;;;6.60;;
10641;SDS011;5369;49.586;8.646;2023-10-19T06:01:02;7.87;;;6.87;;
10641;SDS011;5369;49.586;8.646;2023-10-19T06:03:29;9.23;;;6.60;;
10641;SDS011;5369;49.586;8.646;2023-10-19T06:05:55;8.60;;;7.20;;
10641;SDS011;5369;49.586;8.646;2023-10-19T06:08:22;9.70;;;7.40;;
10641;SDS011;5369;49.586;8.646;2023-10-19T06:10:51;9.47;;;7.80;;
10641;SDS011;5369;49.586;8.646;2023-10-19T06:13:18;8.83;;;6.90;;
10641;SDS011;5369;49.586;8.646;2023-10-19T06:15:44;9.50;;;7.33;;
10641;SDS011;5369;49.586;8.646;2023-10-19T06:18:10;8.83;;;7.47;;
10641;SDS011;5369;49.586;8.646;2023-10-19T06:20:42;8.53;;;6.40;;
10641;SDS011;5369;49.586;8.646;2023-10-19T06:23:09;9.20;;;7.47;;
10641;SDS011;5369;49.586;8.646;2023-10-19T06:25:36;8.63;;;7.40;;
10641;SDS011;5369;49.586;8.646;2023-10-19T06:28:03;9.70;;;7.70;;
10641;SDS011;5369;49.586;8.646;2023-10-19T06:30:29;7.90;;;7.03;;
10641;SDS011;5369;49.586;8.646;2023-10-19T06:32:57;10.13;;;7.93;;
10641;SDS011;5369;49.586;8.646;2023-10-19T06:35:26;10.30;;;7.83;;
10641;SDS011;5369;49.586;8.646;2023-10-19T06:37:53;9.57;;;8.57;;
10641;SDS011;5369;49.586;8.646;2023-10-19T06:40:24;7.93;;;7.10;;
10641;SDS011;5369;49.586;8.646;2023-10-19T06:42:52;10.53;;;8.33;;
10641;SDS011;5369;49.586;8.646;2023-10-19T06:45:18;11.20;;;7.57;;
10641;SDS011;5369;49.586;8.646;2023-10-19T06:47:45;10.00;;;7.03;;
10641;SDS011;5369;49.586;8.646;2023-10-19T06:50:12;7.83;;;7.03;;
10641;SDS011;5369;49.586;8.646;2023-10-19T06:52:41;10.03;;;7.67;;
10641;SDS011;5369;49.586;8.646;2023-10-19T06:55:08;9.50;;;7.37;;
10641;SDS011;5369;49.586;8.646;2023-10-19T06:57:46;10.13;;;8.00;;
10641;SDS011;5369;49.586;8.646;2023-10-19T07:00:13;8.40;;;7.50;;
10641;SDS011;5369;49.586;8.646;2023-10-19T07:02:40;9.07;;;7.30;;
10641;SDS011;5369;49.586;8.646;2023-10-19T07:05:13;8.57;;;7.63;;
10641;SDS011;5369;49.586;8.646;2023-10-19T07:07:43;10.33;;;7.97;;
10641;SDS011;5369;49.586;8.646;2023-10-19T07:10:10;9.20;;;7.80;;
10641;SDS011;5369;49.586;8.646;2023-10-19T07:12:41;10.63;;;7.60;;
10641;SDS011;5369;49.586;8.646;2023-10-19T07:15:08;8.90;;;8.00;;
10641;SDS011;5369;49.586;8.646;2023-10-19T07:17:39;10.47;;;8.20;;
10641;SDS011;5369;49.586;8.646;2023-10-19T07:20:05;11.03;;;8.20;;
10641;SDS011;5369;49.586;8.646;2023-10-19T07:22:33;10.47;;;7.43;;
10641;SDS011;5369;49.586;8.646;2023-10-19T07:24:59;9.33;;;7.60;;
10641;SDS011;5369;49.586;8.646;2023-10-19T07:27:25;11.57;;;7.33;;
10641;SDS011;5369;49.586;8.646;2023-10-19T07:29:53;9.23;;;7.50;;
10641;SDS011;5369;49.586;8.646;2023-10-19T07:32:20;8.53;;;7.17;;
10641;SDS011;5369;49.586;8.646;2023-10-19T07:34:46;8.97;;;6.70;;
10641;SDS011;5369;49.586;8.646;2023-10-19T07:37:13;9.07;;;7.07;;
10641;SDS011;5369;49.586;8.646;2023-10-19T07:39:46;8.27;;;6.40;;
10641;SDS011;5369;49.586;8.646;2023-10-19T07:42:12;10.67;;;6.87;;
10641;SDS011;5369;49.586;8.646;2023-10-19T07:44:38;7.63;;;6.10;;
10641;SDS011;5369;49.586;8.646;2023-10-19T07:47:04;8.90;;;6.97;;
10641;SDS011;5369;49.586;8.646;2023-10-19T07:49:32;8.57;;;5.83;;
10641;SDS011;5369;49.586;8.646;2023-10-19T07:51:58;8.33;;;6.50;;
10641;SDS011;5369;49.586;8.646;2023-10-19T07:54:25;7.97;;;6.03;;
10641;SDS011;5369;49.586;8.646;2023-10-19T07:56:52;8.53;;;6.07;;
10641;SDS011;5369;49.586;8.646;2023-10-19T07:59:18;9.47;;;6.33;;
10641;SDS011;5369;49.586;8.646;2023-10-19T08:01:44;7.47;;;6.40;;
10641;SDS011;5369;49.586;8.646;2023-10-19T08:04:11;7.37;;;6.20;;
10641;SDS011;5369;49.586;8.646;2023-10-19T08:06:37;8.40;;;6.40;;
10641;SDS011;5369;49.586;8.646;2023-10-19T08:09:03;8.90;;;6.77;;
10641;SDS011;5369;49.586;8.646;2023-10-19T08:11:30;7.30;;;6.10;;
10641;SDS011;5369;49.586;8.646;2023-10-19T08:13:56;8.30;;;5.83;;
10641;SDS011;5369;49.586;8.646;2023-10-19T08:16:22;6.10;;;5.27;;
10641;SDS011;5369;49.586;8.646;2023-10-19T08:18:49;6.47;;;5.37;;
10641;SDS011;5369;49.586;8.646;2023-10-19T08:21:18;6.87;;;5.40;;
10641;SDS011;5369;49.586;8.646;2023-10-19T08:23:44;8.30;;;5.63;;
10641;SDS011;5369;49.586;8.646;2023-10-19T08:26:11;8.40;;;5.70;;
10641;SDS011;5369;49.586;8.646;2023-10-19T08:28:37;6.63;;;5.07;;
10641;SDS011;5369;49.586;8.646;2023-10-19T08:31:03;6.77;;;4.93;;
10641;SDS011;5369;49.586;8.646;2023-10-19T08:33:30;5.80;;;4.87;;
10641;SDS011;5369;49.586;8.646;2023-10-19T08:35:59;6.77;;;5.00;;
10641;SDS011;5369;49.586;8.646;2023-10-19T08:38:25;7.30;;;5.20;;
10641;SDS011;5369;49.586;8.646;2023-10-19T08:40:51;6.40;;;5.20;;
10641;SDS011;5369;49.586;8.646;2023-10-19T08:43:19;6.63;;;5.30;;
10641;SDS011;5369;49.586;8.646;2023-10-19T08:45:46;6.97;;;4.90;;
10641;SDS011;5369;49.586;8.646;2023-10-19T08:48:12;6.87;;;5.40;;
10641;SDS011;5369;49.586;8.646;2023-10-19T08:50:39;7.40;;;5.43;;
10641;SDS011;5369;49.586;8.646;2023-10-19T08:53:09;6.73;;;5.80;;
10641;SDS011;5369;49.586;8.646;2023-10-19T08:55:39;5.60;;;4.70;;
10641;SDS011;5369;49.586;8.646;2023-10-19T08:58:05;7.30;;;5.97;;
10641;SDS011;5369;49.586;8.646;2023-10-19T09:00:50;7.27;;;6.00;;
10641;SDS011;5369;49.586;8.646;2023-10-19T09:03:19;6.37;;;5.20;;
10641;SDS011;5369;49.586;8.646;2023-10-19T09:05:47;6.00;;;5.10;;
10641;SDS011;5369;49.586;8.646;2023-10-19T09:08:14;7.13;;;5.43;;
10641;SDS011;5369;49.586;8.646;2023-10-19T09:10:41;5.30;;;4.70;;
10641;SDS011;5369;49.586;8.646;2023-10-19T09:13:10;6.73;;;4.60;;
10641;SDS011;5369;49.586;8.646;2023-10-19T09:15:38;7.00;;;5.40;;
10641;SDS011;5369;49.586;8.646;2023-10-19T09:18:11;6.47;;;5.07;;
10641;SDS011;5369;49.586;8.646;2023-10-19T09:20:41;6.80;;;5.50;;
10641;SDS011;5369;49.586;8.646;2023-10-19T09:23:20;6.83;;;5.60;;
10641;SDS011;5369;49.586;8.646;2023-10-19T09:25:50;7.20;;;5.00;;
10641;SDS011;5369;49.586;8.646;2023-10-19T09:28:20;6.13;;;4.80;;
10641;SDS011;5369;49.586;8.646;2023-10-19T09:30:50;7.70;;;4.70;;
10641;SDS011;5369;49.586;8.646;2023-10-19T09:33:17;7.20;;;5.27;;
10641;SDS011;5369;49.586;8.646;2023-10-19T09:35:46;6.67;;;4.97;;
10641;SDS011;5369;49.586;8.646;2023-10-19T09:38:15;7.90;;;5.10;;
10641;SDS011;5369;49.586;8.646;2023-10-19T09:40:50;7.60;;;4.57;;
10641;SDS011;5369;49.586;8.646;2023-10-19T09:43:21;8.17;;;4.47;;
10641;SDS011;5369;49.586;8.646;2023-10-19T09:45:51;6.27;;;4.80;;
10641;SDS011;5369;49.586;8.646;2023-10-19T09:48:19;6.13;;;5.13;;
10641;SDS011;5369;49.586;8.646;2023-10-19T09:50:51;8.67;;;5.20;;
10641;SDS011;5369;49.586;8.646;2023-10-19T09:53:22;6.70;;;4.83;;
10641;SDS011;5369;49.586;8.646;2023-10-19T09:55:48;5.30;;;4.63;;
10641;SDS011;5369;49.586;8.646;2023-10-19T09:58:16;8.30;;;4.97;;
10641;SDS011;5369;49.586;8.646;2023-10-19T10:00:44;6.33;;;5.10;;
10641;SDS011;5369;49.586;8.646;2023-10-19T10:05:56;9.00;;;4.33;;
10641;SDS011;5369;49.586;8.646;2023-10-19T10:10:52;5.70;;;4.70;;
10641;SDS011;5369;49.586;8.646;2023-10-19T10:15:53;6.50;;;4.33;;
10641;SDS011;5369;49.586;8.646;2023-10-19T10:18:20;6.87;;;4.30;;
10641;SDS011;5369;49.586;8.646;2023-10-19T10:20:46;6.80;;;4.40;;
10641;SDS011;5369;49.586;8.646;2023-10-19T10:23:16;7.27;;;4.60;;
10641;SDS011;5369;49.586;8.646;2023-10-19T10:25:46;6.27;;;4.57;;
10641;SDS011;5369;49.586;8.646;2023-10-19T10:28:19;6.87;;;4.10;;
10641;SDS011;5369;49.586;8.646;2023-10-19T10:33:46;6.07;;;3.70;;
10641;SDS011;5369;49.586;8.646;2023-10-19T10:36:13;5.23;;;3.60;;
10641;SDS011;5369;49.586;8.646;2023-10-19T10:38:40;7.27;;;3.43;;
10641;SDS011;5369;49.586;8.646;2023-10-19T10:41:07;5.27;;;3.77;;
10641;SDS011;5369;49.586;8.646;2023-10-19T10:43:52;4.67;;;3.07;;
10641;SDS011;5369;49.586;8.646;2023-10-19T10:46:19;4.87;;;3.10;;
10641;SDS011;5369;49.586;8.646;2023-10-19T10:48:46;4.93;;;2.83;;
10641;SDS011;5369;49.586;8.646;2023-10-19T10:51:20;3.97;;;2.83;;
10641;SDS011;5369;49.586;8.646;2023-10-19T10:53:47;5.27;;;3.40;;
10641;SDS011;5369;49.586;8.646;2023-10-19T10:56:14;5.20;;;3.83;;
10641;SDS011;5369;49.586;8.646;2023-10-19T10:58:40;4.20;;;3.23;;
10641;SDS011;5369;49.586;8.646;2023-10-19T11:01:06;4.63;;;3.30;;
10641;SDS011;5369;49.586;8.646;2023-10-19T11:03:33;3.93;;;2.90;;
10641;SDS011;5369;49.586;8.646;2023-10-19T11:06:02;3.43;;;3.00;;
10641;SDS011;5369;49.586;8.646;2023-10-19T11:08:29;6.63;;;3.30;;
10641;SDS011;5369;49.586;8.646;2023-10-19T11:11:01;5.30;;;3.20;;
10641;SDS011;5369;49.586;8.646;2023-10-19T11:13:29;4.00;;;3.00;;
10641;SDS011;5369;49.586;8.646;2023-10-19T11:15:58;3.97;;;3.20;;
10641;SDS011;5369;49.586;8.646;2023-10-19T11:18:30;3.40;;;2.93;;
10641;SDS011;5369;49.586;8.646;2023-10-19T11:20:57;3.53;;;2.73;;
10641;SDS011;5369;49.586;8.646;2023-10-19T11:23:39;3.10;;;2.80;;
10641;SDS011;5369;49.586;8.646;2023-10-19T11:26:06;3.43;;;3.00;;
10641;SDS011;5369;49.586;8.646;2023-10-19T11:28:33;3.97;;;2.77;;
10641;SDS011;5369;49.586;8.646;2023-10-19T11:31:10;6.27;;;3.13;;
10641;SDS011;5369;49.586;8.646;2023-10-19T11:33:37;3.43;;;2.60;;
10641;SDS011;5369;49.586;8.646;2023-10-19T11:36:04;5.47;;;3.00;;
10641;SDS011;5369;49.586;8.646;2023-10-19T11:38:30;4.93;;;2.80;;
10641;SDS011;5369;49.586;8.646;2023-10-19T11:40:57;4.10;;;2.93;;
10641;SDS011;5369;49.586;8.646;2023-10-19T11:43:23;3.77;;;2.80;;
10641;SDS011;5369;49.586;8.646;2023-10-19T11:45:49;4.00;;;2.80;;
10641;SDS011;5369;49.586;8.646;2023-10-19T11:48:16;4.03;;;2.97;;
10641;SDS011;5369;49.586;8.646;2023-10-19T11:50:43;4.47;;;2.80;;
10641;SDS011;5369;49.586;8.646;2023-10-19T11:53:09;5.90;;;3.43;;
10641;SDS011;5369;49.586;8.646;2023-10-19T11:55:35;4.57;;;2.70;;
10641;SDS011;5369;49.586;8.646;2023-10-19T11:58:01;5.13;;;3.47;;
10641;SDS011;5369;49.586;8.646;2023-10-19T12:00:27;4.03;;;3.10;;
10641;SDS011;5369;49.586;8.646;2023-10-19T12:03:03;3.10;;;2.70;;
10641;SDS011;5369;49.586;8.646;2023-10-19T12:05:31;4.13;;;2.93;;
10641;SDS011;5369;49.586;8.646;2023-10-19T12:08:02;4.37;;;2.80;;
10641;SDS011;5369;49.586;8.646;2023-10-19T12:10:28;4.60;;;3.50;;
10641;SDS011;5369;49.586;8.646;2023-10-19T12:13:03;3.60;;;2.90;;
10641;SDS011;5369;49.586;8.646;2023-10-19T12:15:34;5.77;;;4.30;;
10641;SDS011;5369;49.586;8.646;2023-10-19T12:18:00;8.10;;;5.53;;
10641;SDS011;5369;49.586;8.646;2023-10-19T12:20:28;11.60;;;10.60;;
10641;SDS011;5369;49.586;8.646;2023-10-19T12:22:56;7.10;;;6.40;;
10641;SDS011;5369;49.586;8.646;2023-10-19T12:25:24;8.33;;;5.50;;
10641;SDS011;5369;49.586;8.646;2023-10-19T12:27:57;4.40;;;3.90;;
10641;SDS011;5369;49.586;8.646;2023-10-19T12:30:25;5.13;;;3.67;;
10641;SDS011;5369;49.586;8.646;2023-10-19T12:32:53;3.63;;;3.30;;
10641;SDS011;5369;49.586;8.646;2023-10-19T12:35:20;4.67;;;3.30;;
10641;SDS011;5369;49.586;8.646;2023-10-19T12:37:50;3.90;;;3.37;;
10641;SDS011;5369;49.586;8.646;2023-10-19T12:40:21;4.33;;;3.70;;
10641;SDS011;5369;49.586;8.646;2023-10-19T12:43:00;3.97;;;3.23;;
10641;SDS011;5369;49.586;8.646;2023-10-19T12:45:28;5.10;;;3.23;;
10641;SDS011;5369;49.586;8.646;2023-10-19T12:47:55;5.23;;;3.83;;
10641;SDS011;5369;49.586;8.646;2023-10-19T12:50:21;6.67;;;4.33;;
10641;SDS011;5369;49.586;8.646;2023-10-19T12:52:49;6.83;;;3.90;;
10641;SDS011;5369;49.586;8.646;2023-10-19T12:55:18;7.77;;;4.83;;
10641;SDS011;5369;49.586;8.646;2023-10-19T12:57:45;6.47;;;4.40;;
10641;SDS011;5369;49.586;8.646;2023-10-19T13:00:11;7.57;;;5.03;;
10641;SDS011;5369;49.586;8.646;2023-10-19T13:02:54;7.07;;;5.00;;
10641;SDS011;5369;49.586;8.646;2023-10-19T13:05:32;6.93;;;5.30;;
10641;SDS011;5369;49.586;8.646;2023-10-19T13:07:58;8.23;;;7.03;;
10641;SDS011;5369;49.586;8.646;2023-10-19T13:10:28;7.10;;;5.33;;
10641;SDS011;5369;49.586;8.646;2023-10-19T13:13:01;6.00;;;5.17;;
10641;SDS011;5369;49.586;8.646;2023-10-19T13:15:31;6.87;;;5.07;;
10641;SDS011;5369;49.586;8.646;2023-10-19T13:17:58;6.67;;;5.30;;
10641;SDS011;5369;49.586;8.646;2023-10-19T13:20:25;7.13;;;5.57;;
10641;SDS011;5369;49.586;8.646;2023-10-19T13:22:51;6.87;;;5.67;;
10641;SDS011;5369;49.586;8.646;2023-10-19T13:25:17;9.13;;;6.30;;
10641;SDS011;5369;49.586;8.646;2023-10-19T13:27:54;6.70;;;5.30;;
10641;SDS011;5369;49.586;8.646;2023-10-19T13:30:20;7.73;;;5.83;;
10641;SDS011;5369;49.586;8.646;2023-10-19T13:32:46;7.47;;;6.40;;
10641;SDS011;5369;49.586;8.646;2023-10-19T13:35:12;8.13;;;6.67;;
10641;SDS011;5369;49.586;8.646;2023-10-19T13:37:38;7.80;;;5.90;;
10641;SDS011;5369;49.586;8.646;2023-10-19T13:40:04;7.27;;;6.57;;
10641;SDS011;5369;49.586;8.646;2023-10-19T13:42:31;8.73;;;6.70;;
10641;SDS011;5369;49.586;8.646;2023-10-19T13:45:18;7.47;;;6.57;;
10641;SDS011;5369;49.586;8.646;2023-10-19T13:47:44;7.93;;;5.87;;
10641;SDS011;5369;49.586;8.646;2023-10-19T13:50:10;10.23;;;7.03;;
10641;SDS011;5369;49.586;8.646;2023-10-19T13:52:38;8.37;;;6.63;;
10641;SDS011;5369;49.586;8.646;2023-10-19T13:55:05;7.50;;;6.80;;
10641;SDS011;5369;49.586;8.646;2023-10-19T13:57:32;9.53;;;7.10;;
10641;SDS011;5369;49.586;8.646;2023-10-19T13:59:59;9.17;;;7.30;;
10641;SDS011;5369;49.586;8.646;2023-10-19T14:02:26;14.70;;;12.23;;
10641;SDS011;5369;49.586;8.646;2023-10-19T14:04:52;23.53;;;17.27;;
10641;SDS011;5369;49.586;8.646;2023-10-19T14:07:18;19.57;;;11.13;;
10641;SDS011;5369;49.586;8.646;2023-10-19T14:09:45;11.87;;;8.47;;
10641;SDS011;5369;49.586;8.646;2023-10-19T14:12:11;11.43;;;7.97;;
10641;SDS011;5369;49.586;8.646;2023-10-19T14:14:37;9.00;;;7.47;;
10641;SDS011;5369;49.586;8.646;2023-10-19T14:17:03;8.50;;;7.60;;
10641;SDS011;5369;49.586;8.646;2023-10-19T14:19:30;10.10;;;7.67;;
10641;SDS011;5369;49.586;8.646;2023-10-19T14:21:56;8.47;;;7.63;;
10641;SDS011;5369;49.586;8.646;2023-10-19T14:24:23;12.60;;;9.60;;
10641;SDS011;5369;49.586;8.646;2023-10-19T14:26:49;16.27;;;12.67;;
10641;SDS011;5369;49.586;8.646;2023-10-19T14:29:16;13.53;;;10.17;;
10641;SDS011;5369;49.586;8.646;2023-10-19T14:31:42;11.93;;;8.87;;
10641;SDS011;5369;49.586;8.646;2023-10-19T14:34:09;10.67;;;9.03;;
10641;SDS011;5369;49.586;8.646;2023-10-19T14:36:35;13.77;;;10.03;;
10641;SDS011;5369;49.586;8.646;2023-10-19T14:39:01;12.03;;;10.03;;
10641;SDS011;5369;49.586;8.646;2023-10-19T14:41:28;14.53;;;9.53;;
10641;SDS011;5369;49.586;8.646;2023-10-19T14:43:55;12.10;;;9.30;;
10641;SDS011;5369;49.586;8.646;2023-10-19T14:46:21;11.30;;;9.73;;
10641;SDS011;5369;49.586;8.646;2023-10-19T14:48:47;11.50;;;9.10;;
10641;SDS011;5369;49.586;8.646;2023-10-19T14:51:13;12.23;;;9.63;;
10641;SDS011;5369;49.586;8.646;2023-10-19T14:53:40;10.20;;;8.40;;
10641;SDS011;5369;49.586;8.646;2023-10-19T14:56:06;15.50;;;11.30;;
10641;SDS011;5369;49.586;8.646;2023-10-19T14:58:33;13.60;;;10.87;;
10641;SDS011;5369;49.586;8.646;2023-10-19T15:00:59;15.73;;;12.27;;
10641;SDS011;5369;49.586;8.646;2023-10-19T15:03:25;15.80;;;12.50;;
10641;SDS011;5369;49.586;8.646;2023-10-19T15:05:53;15.97;;;12.37;;
10641;SDS011;5369;49.586;8.646;2023-10-19T15:08:20;12.63;;;8.93;;
10641;SDS011;5369;49.586;8.646;2023-10-19T15:10:49;8.33;;;7.30;;